Silsoe, United Kingdom
Current Conditions -  °F | °C
As of 2:20 PM on Wednesday 28 Jan 2015 (Local Time) from EGTC Reporting Station
Few Clouds Few Clouds  
Wind Chill: 33°   Ceiling: Unl
Heat Index: 43°   Visibility: 6mi
Dew Point: 28°   Wind: 24mph
Humidity: 57%   Direction: 280°W
Pressure: 29.5"   Gusts: 37mph
Location:  52.01°N, 0.42°W
Report Text: EGTC 281420Z 28021G32KT 9999 FEW038 06/M02 Q0999
Loading
Personal Weather Stations






























Interactive Weather Map New forecast layout! Learn more

10-Day Weather Forecast

Advertisements
Track Severe Weather on mobile